createdAt,value
2018-08-23T00:01:14.889Z,23.40
2018-08-23T00:03:43.893Z,23.70
2018-08-23T00:06:12.920Z,24.70
2018-08-23T00:08:49.025Z,24.13
2018-08-23T00:11:22.794Z,24.03
2018-08-23T00:13:51.841Z,22.93
2018-08-23T00:16:25.121Z,22.87
2018-08-23T00:18:54.441Z,22.37
2018-08-23T00:21:26.308Z,24.57
2018-08-23T00:24:06.985Z,23.57
2018-08-23T00:26:36.773Z,22.03
2018-08-23T00:29:12.011Z,21.73
2018-08-23T00:31:41.405Z,22.77
2018-08-23T00:34:11.081Z,23.17
2018-08-23T00:36:40.093Z,22.60
2018-08-23T00:39:09.996Z,23.77
2018-08-23T00:41:39.136Z,23.83
2018-08-23T00:44:08.140Z,23.17
2018-08-23T00:46:37.208Z,22.80
2018-08-23T00:49:06.262Z,25.07
2018-08-23T00:51:38.975Z,22.70
2018-08-23T00:54:07.944Z,26.23
2018-08-23T00:56:37.212Z,25.43
2018-08-23T00:59:06.199Z,27.10
2018-08-23T01:01:35.196Z,28.03
2018-08-23T01:04:04.478Z,26.87
2018-08-23T01:06:42.824Z,26.63
2018-08-23T01:09:12.841Z,27.43
2018-08-23T01:11:41.915Z,26.43
2018-08-23T01:14:11.277Z,27.77
2018-08-23T01:16:40.364Z,27.00
2018-08-23T01:20:17.778Z,28.87
2018-08-23T01:22:58.321Z,29.30
2018-08-23T01:25:30.200Z,31.50
2018-08-23T01:27:59.225Z,29.73
2018-08-23T01:30:28.265Z,29.17
2018-08-23T01:32:57.600Z,29.07
2018-08-23T01:35:26.972Z,29.13
2018-08-23T01:37:55.976Z,29.37
2018-08-23T01:40:25.000Z,31.63
2018-08-23T01:42:53.999Z,30.67
2018-08-23T01:45:23.021Z,31.37
2018-08-23T01:47:59.131Z,32.70
2018-08-23T01:50:28.136Z,33.30
2018-08-23T01:52:57.855Z,32.20
2018-08-23T01:55:26.985Z,32.97
2018-08-23T01:57:56.091Z,35.30
2018-08-23T02:00:27.279Z,32.53
2018-08-23T02:02:56.274Z,34.53
2018-08-23T02:05:25.282Z,34.23
2018-08-23T02:07:54.333Z,35.60
2018-08-23T02:10:23.378Z,32.43
2018-08-23T02:12:54.488Z,33.73
2018-08-23T02:15:23.583Z,33.43
2018-08-23T02:17:57.526Z,33.73
2018-08-23T02:20:27.459Z,33.83
2018-08-23T02:22:56.698Z,34.80
2018-08-23T02:25:25.707Z,34.13
2018-08-23T02:27:59.056Z,33.07
2018-08-23T02:30:44.728Z,31.50
2018-08-23T02:33:14.416Z,31.93
2018-08-23T02:35:55.888Z,34.20
2018-08-23T02:38:25.632Z,34.03
2018-08-23T02:40:54.601Z,34.97
2018-08-23T02:43:23.652Z,30.00
2018-08-23T02:45:53.528Z,31.63
2018-08-23T02:48:23.421Z,31.83
2018-08-23T02:50:52.932Z,30.73
2018-08-23T02:53:37.598Z,30.07
2018-08-23T02:56:09.823Z,30.40
2018-08-23T02:58:48.457Z,29.67
2018-08-23T03:01:17.476Z,29.03
2018-08-23T03:04:00.372Z,30.43
2018-08-23T03:06:34.412Z,28.80
2018-08-23T03:09:03.760Z,29.03
2018-08-23T03:11:34.266Z,28.93
2018-08-23T03:14:03.364Z,29.03
2018-08-23T03:16:43.565Z,30.17
2018-08-23T03:19:12.822Z,29.17
2018-08-23T03:21:41.844Z,28.67
2018-08-23T03:24:11.357Z,30.60
2018-08-23T03:26:40.630Z,30.20
2018-08-23T03:29:09.700Z,30.70
2018-08-23T03:31:38.736Z,32.27
2018-08-23T03:34:07.836Z,31.70
2018-08-23T03:36:36.880Z,32.00
2018-08-23T03:39:08.284Z,32.93
2018-08-23T03:41:37.404Z,32.77
2018-08-23T03:44:16.358Z,31.50
2018-08-23T03:46:51.925Z,30.17
2018-08-23T03:49:25.804Z,33.27
2018-08-23T03:51:55.577Z,31.87
2018-08-23T03:54:24.620Z,30.90
2018-08-23T03:57:11.311Z,32.57
2018-08-23T03:59:43.420Z,31.03
2018-08-23T04:02:13.092Z,31.33
2018-08-23T04:04:42.474Z,31.10
2018-08-23T04:07:11.633Z,31.47
2018-08-23T04:09:40.830Z,31.23
2018-08-23T04:12:09.927Z,31.57
2018-08-23T04:14:39.079Z,30.73
2018-08-23T04:17:10.208Z,32.17
2018-08-23T04:19:43.193Z,31.97
2018-08-23T04:22:12.230Z,30.97
2018-08-23T04:24:46.513Z,32.00
2018-08-23T04:27:15.528Z,30.03
2018-08-23T04:29:48.437Z,31.40
2018-08-23T04:32:26.170Z,31.57
2018-08-23T04:34:55.452Z,31.47
2018-08-23T04:37:24.653Z,31.50
2018-08-23T04:39:58.903Z,31.97
2018-08-23T04:42:27.896Z,30.83
2018-08-23T04:44:56.928Z,32.33
2018-08-23T04:47:25.951Z,30.83
2018-08-23T04:49:54.992Z,31.80
2018-08-23T04:52:23.985Z,28.73
2018-08-23T04:54:53.046Z,32.10
2018-08-23T04:57:22.049Z,30.10
2018-08-23T04:59:51.076Z,30.80
2018-08-23T05:02:20.356Z,29.37
2018-08-23T05:04:49.364Z,29.40
2018-08-23T05:07:18.389Z,26.77
2018-08-23T05:09:47.417Z,27.37
2018-08-23T05:12:16.435Z,27.13
2018-08-23T05:14:45.478Z,28.87
2018-08-23T05:17:14.533Z,30.00
2018-08-23T05:19:43.605Z,30.03
2018-08-23T05:22:12.869Z,29.53
2018-08-23T05:24:41.886Z,30.20
2018-08-23T05:27:10.885Z,30.43
2018-08-23T05:29:40.021Z,30.80
2018-08-23T05:32:09.041Z,32.07
2018-08-23T05:34:38.081Z,32.03
2018-08-23T05:37:07.740Z,32.50
2018-08-23T05:39:47.969Z,33.27
2018-08-23T05:42:22.185Z,34.00
2018-08-23T05:44:51.213Z,35.43
2018-08-23T05:47:20.201Z,34.77
2018-08-23T05:49:49.240Z,31.73
2018-08-23T05:52:18.240Z,33.07
2018-08-23T05:54:47.329Z,34.53
2018-08-23T05:57:17.489Z,33.37
2018-08-23T05:59:46.544Z,32.80
2018-08-23T06:02:15.842Z,32.73
2018-08-23T06:04:44.913Z,34.70
2018-08-23T06:07:13.899Z,33.23
2018-08-23T06:09:43.684Z,35.07
2018-08-23T06:12:12.713Z,35.43
2018-08-23T06:14:41.763Z,33.87
2018-08-23T06:17:10.805Z,37.27
2018-08-23T06:19:39.840Z,39.27
2018-08-23T06:22:08.931Z,38.87
2018-08-23T06:24:37.984Z,38.23
2018-08-23T06:27:07.040Z,39.03
2018-08-23T06:29:36.082Z,41.60
2018-08-23T06:32:07.438Z,40.33
2018-08-23T06:34:38.681Z,39.73
2018-08-23T06:37:07.694Z,39.27
2018-08-23T06:39:36.741Z,39.50
2018-08-23T06:42:05.865Z,37.25
2018-08-23T06:44:42.555Z,38.42
2018-08-23T06:47:13.045Z,37.55
2018-08-23T06:49:43.144Z,40.60
2018-08-23T06:52:14.916Z,39.85
2018-08-23T06:54:43.956Z,36.73
2018-08-23T06:57:12.993Z,39.75
2018-08-23T06:59:42.025Z,40.33
2018-08-23T07:02:11.060Z,38.08
2018-08-23T07:04:40.149Z,39.18
2018-08-23T07:07:13.429Z,38.60
2018-08-23T07:09:42.423Z,37.93
2018-08-23T07:12:16.729Z,36.93
2018-08-23T07:14:46.885Z,39.10
2018-08-23T07:17:21.229Z,44.10
2018-08-23T07:19:50.592Z,40.85
2018-08-23T07:22:23.644Z,41.05
2018-08-23T07:24:54.017Z,37.53
2018-08-23T07:27:23.245Z,39.08
2018-08-23T07:29:55.199Z,39.73
2018-08-23T07:32:26.294Z,42.75
2018-08-23T07:35:02.585Z,38.92
2018-08-23T07:37:35.613Z,40.52
2018-08-23T07:40:10.010Z,40.23
2018-08-23T07:42:39.978Z,42.65
2018-08-23T07:45:09.466Z,41.08
2018-08-23T07:47:40.091Z,41.48
2018-08-23T07:50:09.438Z,42.65
2018-08-23T07:52:41.196Z,41.55
2018-08-23T07:55:10.225Z,44.27
2018-08-23T07:57:39.784Z,43.80
2018-08-23T08:00:43.103Z,41.48
2018-08-23T08:03:14.324Z,42.08
2018-08-23T08:05:44.465Z,38.05
2018-08-23T08:08:13.949Z,41.30
2018-08-23T08:10:45.142Z,41.68
2018-08-23T08:13:14.165Z,40.25
2018-08-23T08:15:43.240Z,37.30
2018-08-23T08:18:16.711Z,32.67
2018-08-23T08:20:51.535Z,28.23
2018-08-23T08:23:20.520Z,27.22
2018-08-23T08:25:49.524Z,30.20
2018-08-23T08:28:19.004Z,25.75
2018-08-23T08:30:48.682Z,28.98
2018-08-23T08:33:21.101Z,27.20
2018-08-23T08:35:50.733Z,26.70
2018-08-23T08:38:19.721Z,27.75
2018-08-23T08:40:51.405Z,25.17
2018-08-23T08:43:20.421Z,25.68
2018-08-23T08:45:54.561Z,26.50
2018-08-23T08:48:37.861Z,23.07
2018-08-23T08:51:16.515Z,25.48
2018-08-23T08:53:45.975Z,22.62
2018-08-23T08:56:15.054Z,22.13
2018-08-23T08:58:44.198Z,22.20
2018-08-23T09:01:13.204Z,21.12
2018-08-23T09:03:42.505Z,19.35
2018-08-23T09:06:14.537Z,20.15
2018-08-23T09:08:43.586Z,11.85
2018-08-23T09:11:12.621Z,16.85
2018-08-23T09:13:47.206Z,15.18
2018-08-23T09:16:16.345Z,14.00
2018-08-23T09:18:55.150Z,9.93
2018-08-23T09:21:24.140Z,6.05
2018-08-23T09:23:53.177Z,5.87
2018-08-23T09:26:26.411Z,6.00
2018-08-23T09:28:55.478Z,6.10
2018-08-23T09:31:24.813Z,8.38
2018-08-23T09:33:54.629Z,6.10
2018-08-23T09:36:23.616Z,6.50
2018-08-23T09:38:52.637Z,5.78
2018-08-23T09:41:22.060Z,6.40
2018-08-23T09:43:51.045Z,5.40
2018-08-23T09:46:20.061Z,5.90
2018-08-23T09:48:49.069Z,4.95
2018-08-23T09:51:23.485Z,4.47
2018-08-23T09:53:52.476Z,5.22
2018-08-23T09:56:26.833Z,5.05
2018-08-23T09:58:55.894Z,4.33
2018-08-23T10:01:30.156Z,3.90
2018-08-23T10:04:04.534Z,4.30
2018-08-23T10:06:38.788Z,3.72
2018-08-23T10:09:15.309Z,4.10
2018-08-23T10:11:50.130Z,4.10
2018-08-23T10:14:24.290Z,3.83
2018-08-23T10:16:58.644Z,4.42
2018-08-23T10:19:33.765Z,3.55
2018-08-23T10:22:08.033Z,3.70
2018-08-23T10:24:37.020Z,3.27
2018-08-23T10:27:06.431Z,3.60
2018-08-23T10:29:35.705Z,3.30
2018-08-23T10:32:04.813Z,3.20
2018-08-23T10:34:33.809Z,3.35
2018-08-23T10:37:02.813Z,3.50
2018-08-23T10:39:31.854Z,2.80
2018-08-23T10:42:00.821Z,2.98
2018-08-23T10:44:29.830Z,2.72
2018-08-23T10:46:58.832Z,2.62
2018-08-23T10:49:27.821Z,2.77
2018-08-23T10:51:57.093Z,2.37
2018-08-23T10:54:26.106Z,2.50
2018-08-23T10:56:55.121Z,2.87
2018-08-23T10:59:24.156Z,3.15
2018-08-23T11:01:53.140Z,3.33
2018-08-23T11:04:22.140Z,3.08
2018-08-23T11:06:56.544Z,3.37
2018-08-23T11:09:30.682Z,4.03
2018-08-23T11:11:59.689Z,3.77
2018-08-23T11:14:34.112Z,3.60
2018-08-23T11:17:08.451Z,3.60
2018-08-23T11:20:43.648Z,3.20
2018-08-23T11:23:13.292Z,3.40
2018-08-23T11:25:42.233Z,3.30
2018-08-23T11:28:16.536Z,3.35
2018-08-23T11:30:45.521Z,2.90
2018-08-23T11:33:14.553Z,3.08
2018-08-23T11:35:43.561Z,3.17
2018-08-23T11:38:12.680Z,3.20
2018-08-23T11:40:41.677Z,3.20
2018-08-23T11:43:10.740Z,2.52
2018-08-23T11:45:39.776Z,2.58
2018-08-23T11:48:08.841Z,2.25
2018-08-23T11:50:38.153Z,2.25
2018-08-23T11:53:07.247Z,2.33
2018-08-23T11:55:36.179Z,2.45
2018-08-23T11:58:05.638Z,2.20
2018-08-23T12:00:34.574Z,2.52
2018-08-23T12:03:03.590Z,2.20
2018-08-23T12:05:32.604Z,2.20
2018-08-23T12:08:01.613Z,2.52
2018-08-23T12:10:30.642Z,2.37
2018-08-23T12:12:59.917Z,2.35
2018-08-23T12:15:32.372Z,2.58
2018-08-23T12:18:01.485Z,2.52
2018-08-23T12:20:30.504Z,2.83
2018-08-23T12:22:59.537Z,2.90
2018-08-23T12:25:28.591Z,2.20
2018-08-23T12:28:01.894Z,2.60
2018-08-23T12:30:31.105Z,3.08
2018-08-23T12:33:00.129Z,2.60
2018-08-23T12:35:29.632Z,2.92
2018-08-23T12:38:03.874Z,2.98
2018-08-23T12:40:38.417Z,2.90
2018-08-23T12:43:09.052Z,3.08
2018-08-23T12:45:40.405Z,2.80
2018-08-23T12:48:10.755Z,2.72
2018-08-23T12:50:40.143Z,2.75
2018-08-23T12:53:09.219Z,3.15
2018-08-23T12:55:38.261Z,3.15
2018-08-23T12:58:11.290Z,3.17
2018-08-23T13:00:41.636Z,3.00
2018-08-23T13:03:10.891Z,3.02
2018-08-23T13:05:39.957Z,2.80
2018-08-23T13:08:09.068Z,2.75
2018-08-23T13:10:38.185Z,3.10
2018-08-23T13:13:07.236Z,2.87
2018-08-23T13:15:36.245Z,2.70
2018-08-23T13:18:06.156Z,2.98
2018-08-23T13:20:35.452Z,3.12
2018-08-23T13:23:04.440Z,2.92
2018-08-23T13:25:33.501Z,2.90
2018-08-23T13:28:02.851Z,3.62
2018-08-23T13:30:31.862Z,2.95
2018-08-23T13:33:00.890Z,3.25
2018-08-23T13:35:29.999Z,3.10
2018-08-23T13:37:58.970Z,3.33
2018-08-23T13:40:28.551Z,3.60
2018-08-23T13:42:57.588Z,3.40
2018-08-23T13:45:26.600Z,3.20
2018-08-23T13:47:55.647Z,3.12
2018-08-23T13:50:24.657Z,3.50
2018-08-23T13:52:53.666Z,3.25
2018-08-23T13:55:22.697Z,3.37
2018-08-23T13:57:51.753Z,3.20
2018-08-23T14:00:29.075Z,3.60
2018-08-23T14:02:58.709Z,4.80
2018-08-23T14:05:27.765Z,4.22
2018-08-23T14:07:56.800Z,4.12
2018-08-23T14:10:25.797Z,3.98
2018-08-23T14:12:55.067Z,5.58
2018-08-23T14:15:29.405Z,5.90
2018-08-23T14:17:58.541Z,5.40
2018-08-23T14:20:27.585Z,5.33
2018-08-23T14:22:56.640Z,6.80
2018-08-23T14:25:25.736Z,6.55
2018-08-23T14:27:55.037Z,6.90
2018-08-23T14:30:24.111Z,6.30
2018-08-23T14:32:53.133Z,6.92
2018-08-23T14:35:22.154Z,7.50
2018-08-23T14:37:51.165Z,7.10
2018-08-23T14:40:20.514Z,6.50
2018-08-23T14:42:49.487Z,6.35
2018-08-23T14:45:23.872Z,6.72
2018-08-23T14:47:58.281Z,6.08
2018-08-23T14:50:27.309Z,6.72
2018-08-23T14:52:56.424Z,6.58
2018-08-23T14:55:30.852Z,7.00
2018-08-23T14:57:59.848Z,8.40
2018-08-23T15:00:28.915Z,8.85
2018-08-23T15:02:57.952Z,8.70
2018-08-23T15:05:27.044Z,7.92
2018-08-23T15:07:56.352Z,8.28
2018-08-23T15:10:25.546Z,8.40
2018-08-23T15:12:54.589Z,9.65
2018-08-23T15:15:28.857Z,8.75
2018-08-23T15:17:57.847Z,9.23
2018-08-23T15:20:26.853Z,7.65
2018-08-23T15:22:56.162Z,7.92
2018-08-23T15:25:25.188Z,7.87
2018-08-23T15:27:54.182Z,7.10
2018-08-23T15:30:23.522Z,7.58
2018-08-23T15:32:52.515Z,8.15
2018-08-23T15:35:21.512Z,8.30
2018-08-23T15:37:50.516Z,7.87
2018-08-23T15:40:19.509Z,8.73
2018-08-23T15:42:48.549Z,8.25
2018-08-23T15:45:18.156Z,8.23
2018-08-23T15:47:47.334Z,9.08
2018-08-23T15:50:16.467Z,7.90
2018-08-23T15:52:45.499Z,8.40
2018-08-23T15:55:14.624Z,9.00
2018-08-23T15:57:43.552Z,8.88
2018-08-23T16:00:12.579Z,10.23
2018-08-23T16:02:41.559Z,9.40
2018-08-23T16:05:10.853Z,10.78
2018-08-23T16:07:39.852Z,10.30
2018-08-23T16:10:09.836Z,10.50
2018-08-23T16:12:39.000Z,11.50
2018-08-23T16:15:13.276Z,9.70
2018-08-23T16:17:47.556Z,9.58
2018-08-23T16:20:21.908Z,9.80
2018-08-23T16:22:51.099Z,9.50
2018-08-23T16:25:20.095Z,9.23
2018-08-23T16:27:50.672Z,8.95
2018-08-23T16:30:19.782Z,9.90
2018-08-23T16:32:48.816Z,10.78
2018-08-23T16:35:18.127Z,8.68
2018-08-23T16:37:47.150Z,8.60
2018-08-23T16:40:21.612Z,8.60
2018-08-23T16:42:50.600Z,9.13
2018-08-23T16:45:19.613Z,8.78
2018-08-23T16:47:48.655Z,9.20
2018-08-23T16:50:17.649Z,10.80
2018-08-23T16:52:46.709Z,10.93
2018-08-23T16:55:15.877Z,10.65
2018-08-23T16:57:45.001Z,9.93
2018-08-23T17:00:14.008Z,9.30
2018-08-23T17:02:43.033Z,9.95
2018-08-23T17:05:12.101Z,10.43
2018-08-23T17:07:41.150Z,10.30
2018-08-23T17:10:10.262Z,10.65
2018-08-23T17:12:39.305Z,10.05
2018-08-23T17:15:12.537Z,11.50
2018-08-23T17:17:44.798Z,10.28
2018-08-23T17:20:13.801Z,10.43
2018-08-23T17:22:42.825Z,10.38
2018-08-23T17:25:11.849Z,10.10
2018-08-23T17:27:41.109Z,10.05
2018-08-23T17:30:10.142Z,10.38
2018-08-23T17:32:45.001Z,9.68
2018-08-23T17:35:14.010Z,9.53
2018-08-23T17:37:43.026Z,8.73
2018-08-23T17:40:12.073Z,8.78
2018-08-23T17:42:43.965Z,8.45
2018-08-23T17:45:14.280Z,9.00
2018-08-23T17:47:43.337Z,8.80
2018-08-23T17:50:12.349Z,8.45
2018-08-23T17:52:41.406Z,8.20
2018-08-23T17:55:10.448Z,7.80
2018-08-23T17:57:39.513Z,8.00
2018-08-23T18:00:08.685Z,8.33
2018-08-23T18:02:37.756Z,8.38
2018-08-23T18:05:06.837Z,8.95
2018-08-23T18:07:36.536Z,7.65
2018-08-23T18:10:05.724Z,7.93
2018-08-23T18:12:34.824Z,7.80
2018-08-23T18:15:03.969Z,7.13
2018-08-23T18:17:33.045Z,7.33
2018-08-23T18:20:02.369Z,7.00
2018-08-23T18:22:31.377Z,6.83
2018-08-23T18:25:00.387Z,6.80
2018-08-23T18:27:29.428Z,6.57
2018-08-23T18:29:58.446Z,6.33
2018-08-23T18:32:27.783Z,6.20
2018-08-23T18:34:56.784Z,5.90
2018-08-23T18:37:25.839Z,6.37
2018-08-23T18:39:54.800Z,6.33
2018-08-23T18:42:23.800Z,6.63
2018-08-23T18:44:52.798Z,6.67
2018-08-23T18:47:21.835Z,6.47
2018-08-23T18:49:50.796Z,6.43
2018-08-23T18:52:19.953Z,6.20
2018-08-23T18:54:48.957Z,6.03
2018-08-23T18:57:17.991Z,6.33
2018-08-23T18:59:47.292Z,5.87
2018-08-23T19:02:16.264Z,6.47
2018-08-23T19:04:45.333Z,6.43
2018-08-23T19:07:19.850Z,7.43
2018-08-23T19:09:48.900Z,7.33
2018-08-23T19:12:17.881Z,5.90
2018-08-23T19:14:46.926Z,6.30
2018-08-23T19:17:21.146Z,5.80
2018-08-23T19:19:50.166Z,5.50
2018-08-23T19:22:19.163Z,5.27
2018-08-23T19:24:48.381Z,5.50
2018-08-23T19:27:17.373Z,5.60
2018-08-23T19:29:46.441Z,5.43
2018-08-23T19:32:15.464Z,5.40
2018-08-23T19:34:44.469Z,5.37
2018-08-23T19:37:13.675Z,5.17
2018-08-23T19:39:42.634Z,5.97
2018-08-23T19:42:11.626Z,5.60
2018-08-23T19:44:45.944Z,5.90
2018-08-23T19:47:20.190Z,5.17
2018-08-23T19:49:51.224Z,5.13
2018-08-23T19:52:20.744Z,5.17
2018-08-23T19:54:49.968Z,5.13
2018-08-23T19:57:18.985Z,5.43
2018-08-23T19:59:48.248Z,5.57
2018-08-23T20:02:17.261Z,5.30
2018-08-23T20:04:46.300Z,5.10
2018-08-23T20:07:15.833Z,4.87
2018-08-23T20:09:44.860Z,5.10
2018-08-23T20:12:13.909Z,4.80
2018-08-23T20:14:42.979Z,4.67
2018-08-23T20:17:11.989Z,4.80
2018-08-23T20:19:41.039Z,4.70
2018-08-23T20:22:10.057Z,4.90
2018-08-23T20:24:39.073Z,4.67
2018-08-23T20:27:08.097Z,5.20
2018-08-23T20:29:38.432Z,4.77
2018-08-23T20:32:07.752Z,4.77
2018-08-23T20:34:36.852Z,5.30
2018-08-23T20:37:05.901Z,5.57
2018-08-23T20:39:34.958Z,5.47
2018-08-23T20:42:03.972Z,5.30
2018-08-23T20:44:33.007Z,4.97
2018-08-23T20:47:02.034Z,4.77
2018-08-23T20:49:31.036Z,4.70
2018-08-23T20:52:00.040Z,4.90
2018-08-23T20:54:29.308Z,4.60
2018-08-23T20:56:58.303Z,5.57
2018-08-23T20:59:27.314Z,4.57
2018-08-23T21:01:56.437Z,4.90
2018-08-23T21:04:25.493Z,5.60
2018-08-23T21:06:54.447Z,5.00
2018-08-23T21:09:23.459Z,5.50
2018-08-23T21:11:52.457Z,5.60
2018-08-23T21:14:21.459Z,5.40
2018-08-23T21:16:56.562Z,5.60
2018-08-23T21:19:25.585Z,5.53
2018-08-23T21:21:54.568Z,5.90
2018-08-23T21:24:23.612Z,5.20
2018-08-23T21:26:52.701Z,5.77
2018-08-23T21:29:21.681Z,5.80
2018-08-23T21:31:50.720Z,5.53
2018-08-23T21:34:19.708Z,5.10
2018-08-23T21:36:48.733Z,4.80
2018-08-23T21:39:17.710Z,4.93
2018-08-23T21:41:46.998Z,5.57
2018-08-23T21:44:15.998Z,5.90
2018-08-23T21:46:45.093Z,5.60
2018-08-23T21:49:14.100Z,6.53
2018-08-23T21:51:43.097Z,5.93
2018-08-23T21:54:12.374Z,5.67
2018-08-23T21:56:41.403Z,5.80
2018-08-23T21:59:10.412Z,5.50
2018-08-23T22:01:39.466Z,5.70
2018-08-23T22:04:08.516Z,5.80
2018-08-23T22:06:37.576Z,5.80
2018-08-23T22:09:08.256Z,6.50
2018-08-23T22:11:37.309Z,6.37
2018-08-23T22:14:06.357Z,6.33
2018-08-23T22:16:35.348Z,6.07
2018-08-23T22:19:04.337Z,6.00
2018-08-23T22:21:33.344Z,6.23
2018-08-23T22:24:02.622Z,5.70
2018-08-23T22:26:31.622Z,5.70
2018-08-23T22:29:00.596Z,5.97
2018-08-23T22:31:29.761Z,6.10
2018-08-23T22:33:58.787Z,6.00
2018-08-23T22:36:27.777Z,6.17
2018-08-23T22:38:56.833Z,6.57
2018-08-23T22:41:25.852Z,6.07
2018-08-23T22:43:54.852Z,6.47
2018-08-23T22:46:23.856Z,6.53
2018-08-23T22:48:53.132Z,7.17
2018-08-23T22:51:22.215Z,6.87
2018-08-23T22:53:51.201Z,6.77
2018-08-23T22:56:20.269Z,6.40
2018-08-23T22:58:49.324Z,6.50
2018-08-23T23:01:18.350Z,6.10
2018-08-23T23:03:52.790Z,6.47
2018-08-23T23:06:21.834Z,5.90
2018-08-23T23:08:50.839Z,6.43
2018-08-23T23:11:19.861Z,5.70
2018-08-23T23:13:48.888Z,6.07
2018-08-23T23:16:17.914Z,5.53
2018-08-23T23:18:47.000Z,5.50
2018-08-23T23:21:16.017Z,5.03
2018-08-23T23:23:45.000Z,5.30
2018-08-23T23:26:14.042Z,6.00
2018-08-23T23:28:43.076Z,4.73
2018-08-23T23:31:12.127Z,5.27
2018-08-23T23:33:41.159Z,5.33
2018-08-23T23:36:10.161Z,4.67
2018-08-23T23:38:39.316Z,4.80
2018-08-23T23:41:08.331Z,4.93
2018-08-23T23:43:37.323Z,4.97
2018-08-23T23:46:06.493Z,4.57
2018-08-23T23:48:35.799Z,4.13
2018-08-23T23:51:05.295Z,4.30
2018-08-23T23:53:34.780Z,4.30
2018-08-23T23:56:03.789Z,4.00
2018-08-23T23:58:32.851Z,4.20
